Flight Track Log - Related Links

Times and Time Zones

All times are in EDT time to prevent confusion due to time zone crossing. See the SWA655 flight status page for this flight to view local times or setup timezone preferences in your user account.

Time Position Orientation Groundspeed Altitude Reporting Facility
EDT Latitude Longitude Course Direction KTS MPH feet Rate Location/Type
Fri 05:11:50 PM 37.6333 -122.3667 136° Southeast 151 174 900  Level Northern Cal TRACON
Fri 05:12:26 PM 37.6544 -122.3672 359° North 164 189 1,800 2,816 Climbing Oakland Center
Fri 05:13:28 PM 37.7103 -122.3714 357° North 210 242 5,500 3,929 Climbing Oakland Center
Fri 05:13:50 PM 37.7000 -122.4000 246° West 236 272 7,300 3,732 Climbing Northern Cal TRACON
Fri 05:14:50 PM 37.6333 -122.4333 202° Southwest 255 293 10,600 2,376 Climbing Northern Cal TRACON
Fri 05:15:31 PM 37.5967 -122.4103 154° Southeast 288 331 11,300 2,529 Climbing Oakland Center
Fri 05:16:32 PM 37.5292 -122.3236 134° Southeast 349 402 14,900 3,317 Climbing Oakland Center
Fri 05:17:00 PM 37.3700 -122.2507 136° Southeast  Level FlightAware Approximate
Fri 05:17:34 PM 37.4578 -122.2308 134° Southeast 363 418 18,100  Level Oakland Center
Fri 05:18:35 PM 37.3639 -122.1094 134° Southeast 396 456 21,700 3,122 Climbing Oakland Center
Fri 05:19:37 PM 37.2811 -122.0053 135° Southeast 414 476 24,500 2,439 Climbing Oakland Center
Fri 05:20:38 PM 37.1964 -121.8950 134° Southeast 432 497 26,700 1,220 Climbing Oakland Center
Fri 05:21:40 PM 37.1031 -121.7767 135° Southeast 457 526 27,000 145 Climbing Oakland Center
Fri 05:22:42 PM 37.0169 -121.6669 134° Southeast 459 528 27,000 49 Level Oakland Center
Fri 05:23:43 PM 36.9283 -121.5561 135° Southeast 454 522 27,100 1,073 Climbing Oakland Center
Fri 05:24:45 PM 36.8386 -121.4411 134° Southeast 458 527 29,200 2,098 Climbing Oakland Center
Fri 05:25:46 PM 36.7269 -121.3019 135° Southeast 471 542 31,400 2,098 Climbing Oakland Center
Fri 05:26:48 PM 36.6325 -121.1825 135° Southeast 480 552 33,500 1,902 Climbing Oakland Center
Fri 05:27:49 PM 36.5325 -121.0611 136° Southeast 488 562 35,300 1,707 Climbing Oakland Center
Fri 05:28:51 PM 36.4369 -120.9417 135° Southeast 488 562 37,000 1,659 Climbing Oakland Center
Fri 05:29:52 PM 36.3375 -120.8175 135° Southeast 488 562 38,700 976 Climbing Oakland Center
Fri 05:30:54 PM 36.2453 -120.7042 135° Southeast 493 567 39,000 146 Climbing Oakland Center
Fri 05:31:55 PM 36.1478 -120.5867 136° Southeast 487 560 39,000  Level Oakland Center
Fri 05:32:57 PM 36.0372 -120.4494 135° Southeast 494 568 39,000  Level Oakland Center
Fri 05:33:58 PM 35.9558 -120.3508 136° Southeast 482 555 39,000  Level Oakland Center
Fri 05:35:00 PM 35.8589 -120.2336 136° Southeast 486 559 39,000  Level Oakland Center
Fri 05:36:01 PM 35.7439 -120.0961 136° Southeast 480 552 39,000  Level Oakland Center
Fri 05:37:03 PM 35.6469 -119.9789 135° Southeast 486 559 39,000 -242 Level Oakland Center
Fri 05:38:05 PM 35.5331 -119.8814 145° Southeast 495 570 38,500 -732 Descending Oakland Center
Fri 05:39:06 PM 35.4194 -119.7822 145° Southeast 499 574 37,500 -966 Descending Oakland Center
Fri 05:40:03 PM 35.3075 -119.6869 145° Southeast 494 568 36,600 -958 Descending Los Angeles Center
Fri 05:41:05 PM 35.1961 -119.5900 145° Southeast 490 564 35,600 -1,887 Descending Los Angeles Center
Fri 05:42:07 PM 35.0833 -119.4933 145° Southeast 493 567 32,700 -2,758 Descending Los Angeles Center
Fri 05:43:09 PM 34.9686 -119.3958 145° Southeast 498 573 29,900 -2,565 Descending Los Angeles Center
Fri 05:44:11 PM 34.8569 -119.3022 145° Southeast 489 563 27,400 -2,371 Descending Los Angeles Center
Fri 05:45:13 PM 34.7492 -119.2108 145° Southeast 473 544 25,000 -2,419 Descending Los Angeles Center
Fri 05:46:15 PM 34.6308 -119.1119 145° Southeast 453 521 22,400 -2,352 Descending Los Angeles Center
Fri 05:47:18 PM 34.5308 -119.0269 145° Southeast 435 501 20,100 -2,208 Descending Los Angeles Center
Fri 05:48:20 PM 34.4347 -118.9475 146° Southeast 417 480 17,800 -2,177 Descending Los Angeles Center
Fri 05:49:22 PM 34.3417 -118.8769 148° Southeast 392 451 15,600 -2,323 Descending Los Angeles Center
Fri 05:50:24 PM 34.2189 -118.8311 163° South 381 438 13,000 -1,897 Descending Los Angeles Center
Fri 05:51:38 PM 34.1242 -118.7936 162° South 363 418 11,300 -1,147 Descending Los Angeles Center
Fri 05:52:40 PM 34.0769 -118.6742 115° Southeast 303 349 10,400 -864 Descending Los Angeles Center
Fri 05:53:43 PM 34.0517 -118.5925 110° East 264 304 9,500 -1,056 Descending Los Angeles Center
Fri 05:54:45 PM 34.0250 -118.5072 111° Southeast 254 292 8,200 -1,113 Descending Los Angeles Center
Fri 05:55:47 PM 34.0128 -118.4408 103° East 246 283 7,200 -1,161 Descending Los Angeles Center
Fri 05:56:49 PM 34.0225 -118.3403 83° East 252 290 5,800 -1,161 Descending Los Angeles Center
Fri 05:57:51 PM 34.0303 -118.2569 84° East 250 288 4,800 -774 Descending Los Angeles Center
Fri 05:58:53 PM 34.0067 -118.2022 117° Southeast 211 243 4,200 -823 Descending Los Angeles Center
Fri 05:59:55 PM 33.9689 -118.2372 218° Southwest 203 234 3,100 -1,161 Descending Los Angeles Center
Fri 06:00:57 PM 33.9628 -118.2978 263° West 190 219 1,800 -1,016 Descending Los Angeles Center
Fri 06:01:59 PM 33.9581 -118.3489 264° West 171 197 1,000 -672 Descending Los Angeles Center
Fri 06:03:02 PM 33.9533 -118.3969 263° West 137 158 400 -288 Descending Los Angeles Center
Fri 06:04:04 PM 33.9492 -118.4361 263° West 134 154 400  Level Los Angeles Center

Login

Don't have an account? Register now (free) for customized features, flight alerts, and more!